Cavid Khalilzade

Chefscout - Neftchi
9 Okt 2027
Samstag
Verarbeitung

Persönlichkeit

Anpassungsfähigkeit (2) Ehrgeiz (9) Kontroverse (20) Loyalität (17) Druck (7) Professionalität (14) Fairness (12) Temperament (4)

Profil

Trainerstil Demokratisch
Lizenz Nationale A
Entschlossenheit 12
Menschenführung 8
Motivation 11
Disziplin 9
Arbeitszufriedenheit
100%
Ermüdung
0%
Rolle Chefscout
Gehalt 36.7K p/W
Vertrag 14.03.2028

Leistung

Verhalten Gut
Trainingseffektivität
40%
Spielerentwicklung
60%
Verletzungsprävention
20%
Taktische Umsetzung
45%

Letzte Ereignisse

Nahm an einer Scouting-Besprechung teil 14T her
Nahm an einer Scouting-Besprechung teil 21T her
Nahm an einer Scouting-Besprechung teil 28T her
Nahm an einer Scouting-Besprechung teil 35T her
Sprach sich gegen ein Transferziel aus 42T her
Sprach sich gegen ein Transferziel aus 42T her
Nahm an einer Scouting-Besprechung teil 42T her
Nahm an einer Scouting-Besprechung teil 42T her

Aktuell beobachtet

92
Spieler Verein Status Fähigkeit Vertrauen Beobachtet Zuletzt beobachtet Letzte Stimme
Qismət Alıyev Zira Abgelehnt 106 / 110 62% 1 28.06.2027 Ablehnen
Martins Júnior Zira Abgelehnt 116 / 116 62% 1 03.06.2027 Ablehnen
Dimitrij Amirguliyev AZAL Aktiv 98 / 92 40% 3 30.05.2027 -
Jordan Gabriel Port Vale Aktiv 98 / 104 40% 2 30.05.2027 -
Michael Cheek Bromley Aktiv 103 / 96 40% 11 29.05.2027 -
François Kamano Sochi Aktiv 104 / 103 40% 5 29.05.2027 -
German Onugkha Rodina Aktiv 119 / 131 40% 7 27.05.2027 -
Aaron Drinan Swindon Town Aktiv 106 / 97 40% 11 27.05.2027 -
Dilan Ortíz Ufa Aktiv 109 / 98 40% 7 27.05.2027 -
Edarlyn Reyes Arsenal Tula Aktiv 122 / 101 40% 7 26.05.2027 -
Kane Drummond Oldham Athletic Aktiv 94 / 94 40% 3 26.05.2027 -
Brandon Khela Peterborough United Aktiv 89 / 102 40% 2 26.05.2027 -
Ekain Orobengoa Real Sociedad Aktiv 105 / 98 40% 6 25.05.2027 -
Víctor Guzmán Sporting CP Aktiv 94 / 96 40% 4 25.05.2027 -
Bahlul Mammadov Inter Aktiv 123 / 126 40% 7 24.05.2027 -
Brian Figueroa Morelia Aktiv 119 / 106 40% 2 24.05.2027 -
Conor McAleny Harrogate Town Aktiv 75 / 87 40% 8 22.05.2027 -
Vladislav Sarveli Nizhniy Novgorod Aktiv 111 / 116 40% 2 22.05.2027 -
Anderson Pafos Aktiv 114 / 101 40% 2 22.05.2027 -
Junior Quitirna Wycombe Wanderers Aktiv 100 / 102 40% 1 21.05.2027 -
Anatoliy Nuriyev Adana Demirspor Aktiv 118 / 113 40% 1 21.05.2027 -
Dardan Shabanhaxhaj Rubin Aktiv 104 / 119 40% 7 20.05.2027 -
Jhon Murillo America de Cali Aktiv 113 / 115 40% 3 20.05.2027 -
Bruno Silva Gabala Abgelehnt 100 / 115 40% 1 20.05.2027 Mehr Infos nötig
Mats Seuntjens Groningen Aktiv 119 / 125 40% 3 18.05.2027 -
Miguel Falé Pacos de Ferreira Aktiv 103 / 116 40% 3 17.05.2027 -
Brendan Wiredu Plymouth Argyle Aktiv 108 / 109 40% 2 17.05.2027 -
Maxim Kutovoy Salyut Aktiv 97 / 93 40% 5 16.05.2027 -
Kamran Aliev SKA Khabarovsk Aktiv 99 / 97 40% 8 16.05.2027 -
Cláudio Falcão Farense Aktiv 109 / 114 40% 2 15.05.2027 -
Ichem Ferrah Pisa Aktiv 111 / 111 40% 3 15.05.2027 -
Kady Borges Qarabag Aktiv 131 / 122 40% 1 13.05.2027 -
Rob Street Lincoln City Aktiv 109 / 114 40% 2 11.05.2027 -
Pachu Kapaz Aktiv 104 / 90 40% 3 10.05.2027 -
Tenton Yenne Baltika Aktiv 123 / 109 40% 5 10.05.2027 -
Ilja Safronov Rotor Aktiv 115 / 97 40% 6 09.05.2027 -
Alexandr Yushin Torpedo Moscow Aktiv 95 / 114 40% 9 09.05.2027 -
Tiago Mamede Portimonense Aktiv 115 / 115 40% 1 07.05.2027 -
Vyacheslav Grulev Nizhniy Novgorod Aktiv 112 / 100 40% 5 06.05.2027 -
Tudor Mendel-Idowu Colchester United Aktiv 97 / 89 40% 1 05.05.2027 -
Leo Goglichidze Rodina Aktiv 122 / 124 40% 2 04.05.2027 -
Aleksa Janković Sumgayit Abgelehnt 123 / 106 40% 1 04.05.2027 Mehr Infos nötig
Ibourahima Baldé Giugliano Aktiv 107 / 100 40% 3 03.05.2027 -
Liam Shephard Newport County Aktiv 79 / 87 40% 1 02.05.2027 -
Davit Volkovi Zira Abgelehnt 121 / 120 40% 7 30.04.2027 Ablehnen
Mattia Zennaro Union Brescia Aktiv 105 / 109 40% 1 30.04.2027 -
Vladimir Khubulov Dinamo Makhachkala Aktiv 99 / 119 40% 3 26.04.2027 -
George Thomson Harrogate Town Aktiv 91 / 84 40% 1 25.04.2027 -
Lord Amoah Asante Kotoko Aktiv 83 / 78 40% 1 25.04.2027 -
Georgy Melkadze Akhmat Grozny Aktiv 119 / 119 40% 2 23.04.2027 -
Yordy Reyna Rodina Aktiv 124 / 102 40% 1 22.04.2027 -
James Plant Tranmere Rovers Aktiv 83 / 83 40% 1 22.04.2027 -
Ramazan Gadjimuradov Chelyabinsk Aktiv 92 / 112 40% 2 20.04.2027 -
Musa Qurbanlı Qarabag Aktiv 123 / 113 40% 4 19.04.2027 -
Víctor López Morelia Aktiv 96 / 97 40% 1 18.04.2027 -
Rashad Jafarov Khazar Aktiv 96 / 92 40% 3 17.04.2027 -
Nikolay Boyarkin Salyut Aktiv 91 / 93 40% 2 14.04.2027 -
Ezequiel Sánchez Guidonia Montecelio Aktiv 94 / 80 40% 1 13.04.2027 -
Oleksiy Kashchuk Qarabag Aktiv 113 / 106 40% 1 10.04.2027 -
Ismahil Akinade Gabala Aktiv 105 / 96 40% 5 09.04.2027 -
Jonathan Okoronkwo Torpedo Moscow Aktiv 115 / 108 40% 7 09.04.2027 -
Alexandr Saplinov Volga Aktiv 86 / 98 40% 3 06.04.2027 -
Mikhail Ignatov Sochi Aktiv 127 / 109 40% 3 04.04.2027 -
Lahcen Gourbi Police Union Aktiv 80 / 85 40% 1 02.04.2027 -
Danila Shilov Dinamo Stavropol Aktiv 95 / 100 40% 2 31.03.2027 -
Freddie Draper Lincoln City Aktiv 100 / 110 40% 2 29.03.2027 -
Nathan Fogaça Fortaleza Aktiv 120 / 120 40% 2 27.03.2027 -
Naoufal Bannis Vitesse Aktiv 97 / 110 40% 3 25.03.2027 -
Lars Veldwijk Al-Nahda Aktiv 101 / 91 40% 2 20.03.2027 -
Youssef Dalouzi Renaissance Aktiv 76 / 93 40% 1 14.03.2027 -
Daniil Agureev Amkar Aktiv 77 / 87 40% 1 08.03.2027 -
Timur Melekestsev Arsenal Tula Aktiv 93 / 83 40% 1 07.03.2027 -
Jonah James New Edubiase United Aktiv 73 / 69 40% 1 05.03.2027 -
David Nieland Chernomorets Aktiv 99 / 94 40% 1 05.03.2027 -
David Karaev KAMAZ Aktiv 107 / 109 40% 1 01.03.2027 -
Emile Samyn Chernomorets Aktiv 91 / 76 40% 1 27.02.2027 -
Chinonso Offor Baltika Aktiv 116 / 111 40% 1 05.02.2027 -
Chinedu Geoffrey Krylya Sovetov Aktiv 113 / 105 40% 2 28.01.2027 -
Slobodan Tedić Akron Aktiv 105 / 95 40% 1 28.01.2027 -
Jacobo Alcalde SKA Khabarovsk Aktiv 87 / 94 40% 1 26.01.2027 -
Egor Bogomolskiy Zira Aktiv 106 / 110 40% 1 20.01.2027 -
Jacques Siwe Rubin Aktiv 102 / 124 40% 1 16.01.2027 -
Kamran Jafarov AZAL Abgelehnt 115 / 103 62% 1 01.01.2027 Ablehnen
Agil Ramazanov AZAL Abgelehnt 108 / 129 62% 1 24.08.2026 Ablehnen
Nikos Karelis Sliema Wanderers Aktiv 103 / 96 40% 1 24.08.2026 -
Agustín Bianciotti Metropolitanos Aktiv 98 / 97 40% 1 24.08.2026 -
Nikola Ninković Sumgayit Abgelehnt 95 / 101 62% 1 17.08.2026 Ablehnen
Ramiro Ruiz Rodríguez Atlético Tucumán Aktiv 125 / 113 40% 1 16.08.2026 -
Heung-Min Son Los Angeles Football Club Aktiv 135 / 148 40% 2 15.08.2026 -
Lisandro Cabrera Maipú Aktiv 113 / 118 40% 1 02.08.2026 -
Edwuin Cetré Estudiantes Aktiv 124 / 124 40% 1 01.08.2026 -
Sadio Mané Al-Nassr Aktiv 155 / 159 40% 1 01.08.2026 -